createdAt,value
2022-11-28T00:00:16.349Z,19.90
2022-11-28T00:02:45.561Z,19.90
2022-11-28T00:05:15.079Z,19.80
2022-11-28T00:07:44.517Z,19.80
2022-11-28T00:10:14.199Z,19.80
2022-11-28T00:12:43.416Z,19.80
2022-11-28T00:15:14.663Z,19.80
2022-11-28T00:17:43.818Z,19.80
2022-11-28T00:20:13.545Z,19.80
2022-11-28T00:23:22.644Z,19.70
2022-11-28T00:25:59.041Z,19.70
2022-11-28T00:28:28.391Z,19.70
2022-11-28T00:30:58.954Z,19.70
2022-11-28T00:33:28.247Z,19.70
2022-11-28T00:36:00.387Z,19.70
2022-11-28T00:38:30.259Z,19.70
2022-11-28T00:41:02.389Z,19.70
2022-11-28T00:43:31.648Z,19.70
2022-11-28T00:46:02.326Z,19.60
2022-11-28T00:48:33.273Z,19.60
2022-11-28T00:51:08.621Z,19.60
2022-11-28T00:53:38.575Z,19.60
2022-11-28T00:56:08.983Z,19.60
2022-11-28T00:58:39.017Z,19.60
2022-11-28T01:01:14.859Z,19.60
2022-11-28T01:03:45.034Z,19.60
2022-11-28T01:06:21.168Z,19.60
2022-11-28T01:08:50.437Z,19.60
2022-11-28T01:11:20.104Z,19.60
2022-11-28T01:13:49.361Z,19.60
2022-11-28T01:16:20.003Z,19.50
2022-11-28T01:18:49.506Z,19.60
2022-11-28T01:21:19.312Z,19.50
2022-11-28T01:23:48.595Z,19.50
2022-11-28T01:26:19.761Z,19.50
2022-11-28T01:28:49.575Z,19.50
2022-11-28T01:31:24.040Z,19.50
2022-11-28T01:33:53.898Z,19.50
2022-11-28T01:36:24.604Z,19.50
2022-11-28T01:38:54.218Z,19.40
2022-11-28T01:41:26.309Z,19.40
2022-11-28T01:44:08.718Z,19.40
2022-11-28T01:46:39.405Z,19.40
2022-11-28T01:49:12.208Z,19.40
2022-11-28T01:51:45.435Z,19.40
2022-11-28T01:54:15.902Z,19.40
2022-11-28T01:56:51.368Z,19.40
2022-11-28T01:59:21.866Z,19.40
2022-11-28T02:01:52.584Z,19.40
2022-11-28T02:04:21.807Z,19.40
2022-11-28T02:06:50.968Z,19.40
2022-11-28T02:09:20.091Z,19.40
2022-11-28T02:12:12.746Z,19.30
2022-11-28T02:15:02.437Z,19.40
2022-11-28T02:17:45.485Z,19.30
2022-11-28T02:20:52.172Z,19.30
2022-11-28T02:23:28.194Z,19.30
2022-11-28T02:26:33.740Z,19.30
2022-11-28T02:29:35.421Z,19.30
2022-11-28T02:32:22.925Z,19.30
2022-11-28T02:34:59.202Z,19.30
2022-11-28T02:37:35.301Z,19.20
2022-11-28T02:40:10.323Z,19.30
2022-11-28T02:42:50.503Z,19.20
2022-11-28T02:45:25.332Z,19.20
2022-11-28T02:48:03.047Z,19.20
2022-11-28T02:50:38.705Z,19.20
2022-11-28T02:53:11.587Z,19.20
2022-11-28T02:55:42.175Z,19.20
2022-11-28T02:58:12.397Z,19.20
2022-11-28T03:00:43.754Z,19.20
2022-11-28T03:03:29.901Z,19.20
2022-11-28T03:06:01.903Z,19.20
2022-11-28T03:08:43.387Z,19.20
2022-11-28T03:11:18.679Z,19.20
2022-11-28T03:13:56.071Z,19.20
2022-11-28T03:16:30.250Z,19.10
2022-11-28T03:19:07.230Z,19.20
2022-11-28T03:21:42.304Z,19.10
2022-11-28T03:24:16.517Z,19.20
2022-11-28T03:26:53.630Z,19.10
2022-11-28T03:29:27.379Z,19.10
2022-11-28T03:32:00.673Z,19.10
2022-11-28T03:34:34.608Z,19.10
2022-11-28T03:37:07.393Z,19.10
2022-11-28T03:39:40.418Z,19.10
2022-11-28T03:42:12.534Z,19.10
2022-11-28T03:44:47.014Z,19.10
2022-11-28T03:47:16.427Z,19.00
2022-11-28T03:49:52.366Z,19.00
2022-11-28T03:52:25.539Z,19.10
2022-11-28T03:55:00.246Z,19.00
2022-11-28T03:57:35.404Z,19.00
2022-11-28T04:00:07.802Z,19.00
2022-11-28T04:02:54.073Z,19.00
2022-11-28T04:05:32.263Z,19.00
2022-11-28T04:08:09.124Z,19.00
2022-11-28T04:10:43.289Z,19.00
2022-11-28T04:13:20.252Z,19.00
2022-11-28T04:15:57.199Z,19.00
2022-11-28T04:18:30.405Z,18.90
2022-11-28T04:21:06.908Z,19.00
2022-11-28T04:23:39.185Z,19.00
2022-11-28T04:26:15.397Z,18.90
2022-11-28T04:28:45.350Z,18.90
2022-11-28T04:31:15.067Z,18.90
2022-11-28T04:33:48.755Z,18.90
2022-11-28T04:36:21.649Z,18.90
2022-11-28T04:38:56.595Z,18.90
2022-11-28T04:41:31.555Z,18.90
2022-11-28T04:44:04.519Z,18.90
2022-11-28T04:46:40.985Z,18.90
2022-11-28T04:49:10.692Z,18.90
2022-11-28T04:51:51.315Z,18.80
2022-11-28T04:54:29.527Z,18.90
2022-11-28T04:57:03.131Z,18.90
2022-11-28T04:59:33.677Z,18.90
2022-11-28T05:02:05.881Z,18.90
2022-11-28T05:04:39.214Z,18.80
2022-11-28T05:07:10.668Z,18.80
2022-11-28T05:09:39.923Z,18.80
2022-11-28T05:12:09.362Z,18.80
2022-11-28T05:14:38.551Z,18.80
2022-11-28T05:17:07.902Z,18.80
2022-11-28T05:19:37.075Z,18.90
2022-11-28T05:22:06.250Z,18.80
2022-11-28T05:24:37.004Z,18.80
2022-11-28T05:27:07.461Z,18.80
2022-11-28T05:29:36.617Z,18.80
2022-11-28T05:32:06.504Z,18.80
2022-11-28T05:34:36.387Z,18.80
2022-11-28T05:37:06.468Z,18.80
2022-11-28T05:39:37.494Z,18.80
2022-11-28T05:42:07.077Z,18.80
2022-11-28T05:44:36.414Z,18.80
2022-11-28T05:47:05.615Z,18.80
2022-11-28T05:49:34.761Z,18.80
2022-11-28T05:52:04.106Z,18.80
2022-11-28T05:54:33.273Z,18.80
2022-11-28T05:57:06.360Z,18.80
2022-11-28T05:59:35.952Z,18.80
2022-11-28T06:02:05.435Z,18.90
2022-11-28T06:04:34.694Z,18.90
2022-11-28T06:07:03.842Z,18.80
2022-11-28T06:09:33.045Z,18.80
2022-11-28T06:12:03.682Z,18.80
2022-11-28T06:14:33.798Z,18.80
2022-11-28T06:17:03.012Z,18.80
2022-11-28T06:19:32.480Z,18.80
2022-11-28T06:22:01.642Z,18.70
2022-11-28T06:24:30.918Z,18.70
2022-11-28T06:27:00.093Z,18.70
2022-11-28T06:29:30.761Z,18.70
2022-11-28T06:31:59.997Z,18.70
2022-11-28T06:34:29.308Z,18.70
2022-11-28T06:36:58.428Z,18.70
2022-11-28T06:39:27.510Z,18.70
2022-11-28T06:41:56.628Z,18.70
2022-11-28T06:44:25.903Z,18.70
2022-11-28T06:46:56.717Z,18.70
2022-11-28T06:49:25.975Z,18.70
2022-11-28T06:51:55.052Z,18.60
2022-11-28T06:54:24.204Z,18.60
2022-11-28T06:56:53.445Z,18.60
2022-11-28T06:59:22.583Z,18.60
2022-11-28T07:01:51.758Z,18.60
2022-11-28T07:04:22.675Z,18.60
2022-11-28T07:06:51.817Z,18.60
2022-11-28T07:09:20.933Z,18.60
2022-11-28T07:11:50.068Z,18.60
2022-11-28T07:14:19.305Z,18.60
2022-11-28T07:16:49.416Z,18.60
2022-11-28T07:19:22.885Z,18.50
2022-11-28T07:21:53.429Z,18.60
2022-11-28T07:24:22.613Z,18.60
2022-11-28T07:26:51.720Z,18.50
2022-11-28T07:29:21.258Z,18.50
2022-11-28T07:31:50.546Z,18.50
2022-11-28T07:34:19.865Z,18.50
2022-11-28T07:36:49.020Z,18.50
2022-11-28T07:39:19.955Z,18.50
2022-11-28T07:41:49.144Z,18.50
2022-11-28T07:44:18.564Z,18.50
2022-11-28T07:46:48.567Z,18.50
2022-11-28T07:49:17.881Z,18.50
2022-11-28T07:51:47.451Z,18.50
2022-11-28T07:54:16.719Z,18.50
2022-11-28T07:59:36.573Z,18.50
2022-11-28T08:02:05.941Z,18.50
2022-11-28T08:04:36.727Z,18.50
2022-11-28T08:07:06.008Z,18.50
2022-11-28T08:09:35.273Z,18.40
2022-11-28T08:14:40.968Z,18.40
2022-11-28T08:17:10.387Z,18.40
2022-11-28T08:19:39.531Z,18.40
2022-11-28T08:22:08.781Z,18.40
2022-11-28T08:24:38.048Z,18.40
2022-11-28T08:27:08.890Z,18.40
2022-11-28T08:29:38.117Z,18.40
2022-11-28T08:32:07.319Z,18.40
2022-11-28T08:34:36.517Z,18.40
2022-11-28T08:37:05.608Z,18.40
2022-11-28T08:39:35.124Z,18.40
2022-11-28T08:42:04.254Z,18.40
2022-11-28T08:44:35.088Z,18.40
2022-11-28T08:47:04.307Z,18.30
2022-11-28T08:49:33.988Z,18.30
2022-11-28T08:52:03.984Z,18.30
2022-11-28T08:54:33.355Z,18.30
2022-11-28T08:57:02.639Z,18.30
2022-11-28T08:59:31.864Z,18.30
2022-11-28T09:02:02.399Z,18.30
2022-11-28T09:04:31.584Z,18.30
2022-11-28T09:07:00.691Z,18.30
2022-11-28T09:09:32.849Z,18.30
2022-11-28T09:12:02.377Z,18.30
2022-11-28T09:14:31.878Z,18.30
2022-11-28T09:17:02.482Z,18.30
2022-11-28T09:19:31.696Z,18.30
2022-11-28T09:22:00.765Z,18.30
2022-11-28T09:24:29.990Z,18.30
2022-11-28T09:26:59.341Z,18.30
2022-11-28T09:29:29.464Z,18.30
2022-11-28T09:31:58.604Z,18.30
2022-11-28T09:34:29.188Z,18.30
2022-11-28T09:37:02.129Z,18.30
2022-11-28T09:39:44.320Z,18.20
2022-11-28T09:42:30.150Z,18.20
2022-11-28T09:45:03.459Z,18.20
2022-11-28T09:47:37.064Z,18.20
2022-11-28T09:50:15.424Z,18.20
2022-11-28T09:52:51.149Z,18.20
2022-11-28T09:55:28.312Z,18.20
2022-11-28T09:57:58.486Z,18.20
2022-11-28T10:00:36.464Z,18.20
2022-11-28T10:03:21.114Z,18.20
2022-11-28T10:05:59.621Z,18.20
2022-11-28T10:08:39.609Z,18.20
2022-11-28T10:11:27.006Z,18.20
2022-11-28T10:14:11.480Z,18.20
2022-11-28T10:16:53.920Z,18.20
2022-11-28T10:22:36.872Z,18.10
2022-11-28T10:25:17.029Z,18.10
2022-11-28T10:27:47.669Z,18.10
2022-11-28T10:30:25.980Z,18.10
2022-11-28T10:33:03.918Z,18.10
2022-11-28T10:35:41.404Z,18.10
2022-11-28T10:38:14.396Z,18.10
2022-11-28T10:40:51.338Z,18.10
2022-11-28T10:43:35.844Z,18.10
2022-11-28T10:46:22.839Z,18.10
2022-11-28T10:49:00.843Z,18.10
2022-11-28T10:51:39.698Z,18.10
2022-11-28T10:54:35.699Z,18.10
2022-11-28T10:57:12.543Z,18.10
2022-11-28T10:59:58.098Z,18.10
2022-11-28T11:02:35.107Z,18.10
2022-11-28T11:05:05.416Z,18.10
2022-11-28T11:07:35.450Z,18.10
2022-11-28T11:10:16.926Z,18.10
2022-11-28T11:12:46.857Z,18.10
2022-11-28T11:15:25.501Z,18.10
2022-11-28T11:17:54.668Z,18.10
2022-11-28T11:20:36.963Z,18.10
2022-11-28T11:23:16.895Z,18.10
2022-11-28T11:25:54.438Z,18.10
2022-11-28T11:28:42.830Z,18.10
2022-11-28T11:31:23.115Z,18.10
2022-11-28T11:33:54.815Z,18.10
2022-11-28T11:36:28.284Z,18.00
2022-11-28T11:39:20.913Z,18.00
2022-11-28T11:41:55.004Z,18.10
2022-11-28T11:44:30.099Z,18.00
2022-11-28T11:47:03.595Z,18.00
2022-11-28T11:49:34.989Z,18.00
2022-11-28T11:52:06.425Z,18.00
2022-11-28T11:54:35.790Z,18.00
2022-11-28T11:57:31.202Z,18.00
2022-11-28T11:59:59.835Z,18.00
2022-11-28T12:02:33.680Z,18.00
2022-11-28T12:05:06.249Z,18.00
2022-11-28T12:07:40.525Z,18.00
2022-11-28T12:10:16.578Z,18.00
2022-11-28T12:12:47.227Z,18.00
2022-11-28T12:15:19.673Z,18.00
2022-11-28T12:18:03.630Z,18.00
2022-11-28T12:20:57.181Z,18.00
2022-11-28T12:23:55.897Z,18.00
2022-11-28T12:26:30.084Z,18.00
2022-11-28T12:29:17.128Z,18.00
2022-11-28T12:31:57.179Z,18.00
2022-11-28T12:34:37.083Z,18.00
2022-11-28T12:37:15.356Z,18.00
2022-11-28T12:39:53.550Z,18.00
2022-11-28T12:42:39.738Z,18.00
2022-11-28T12:45:39.445Z,18.00
2022-11-28T12:48:20.707Z,18.00
2022-11-28T12:50:53.890Z,17.90
2022-11-28T12:53:41.126Z,17.90
2022-11-28T12:56:26.970Z,17.90
2022-11-28T12:59:01.137Z,17.90
2022-11-28T13:01:46.427Z,17.90
2022-11-28T13:04:30.744Z,17.90
2022-11-28T13:07:11.743Z,17.90
2022-11-28T13:09:49.278Z,17.90
2022-11-28T13:12:28.750Z,17.90
2022-11-28T13:15:01.864Z,17.90
2022-11-28T13:17:43.808Z,17.90
2022-11-28T13:20:22.955Z,17.90
2022-11-28T13:23:07.108Z,17.90
2022-11-28T13:25:41.914Z,17.90
2022-11-28T13:28:17.669Z,17.90
2022-11-28T13:30:52.618Z,17.90
2022-11-28T13:33:44.712Z,17.90
2022-11-28T13:39:14.467Z,17.90
2022-11-28T13:42:28.237Z,17.90
2022-11-28T13:44:46.306Z,17.90
2022-11-28T13:47:27.962Z,17.90
2022-11-28T13:50:33.481Z,17.90
2022-11-28T13:53:20.574Z,17.90
2022-11-28T13:55:51.025Z,17.80
2022-11-28T13:58:28.457Z,17.80
2022-11-28T14:01:08.185Z,17.80
2022-11-28T14:03:45.661Z,17.80
2022-11-28T14:06:18.471Z,17.80
2022-11-28T14:08:51.301Z,17.80
2022-11-28T14:11:49.972Z,17.80
2022-11-28T14:14:36.346Z,17.80
2022-11-28T14:17:28.378Z,17.80
2022-11-28T14:20:11.996Z,17.80
2022-11-28T14:22:54.414Z,17.80
2022-11-28T14:25:31.002Z,17.80
2022-11-28T14:28:03.678Z,17.80
2022-11-28T14:30:36.502Z,17.80
2022-11-28T14:33:16.673Z,17.80
2022-11-28T14:36:34.322Z,17.80
2022-11-28T14:39:07.409Z,17.80
2022-11-28T14:42:36.721Z,17.80
2022-11-28T14:45:41.367Z,17.80
2022-11-28T14:48:30.502Z,17.80
2022-11-28T14:51:02.556Z,17.80
2022-11-28T14:53:48.716Z,17.80
2022-11-28T14:56:29.719Z,17.80
2022-11-28T14:59:03.596Z,17.80
2022-11-28T15:01:50.420Z,17.80
2022-11-28T15:04:39.957Z,17.80
2022-11-28T15:07:20.427Z,17.80
2022-11-28T15:10:07.489Z,17.70
2022-11-28T15:12:49.338Z,17.70
2022-11-28T15:15:20.624Z,17.70
2022-11-28T15:17:53.956Z,17.70
2022-11-28T15:20:29.537Z,17.70
2022-11-28T15:22:58.831Z,17.70
2022-11-28T15:25:35.485Z,17.70
2022-11-28T15:28:15.736Z,17.70
2022-11-28T15:30:47.844Z,17.70
2022-11-28T15:33:19.072Z,17.70
2022-11-28T15:35:58.543Z,17.70
2022-11-28T15:38:28.933Z,17.70
2022-11-28T15:40:59.648Z,17.70
2022-11-28T15:43:30.692Z,17.70
2022-11-28T15:46:03.100Z,17.70
2022-11-28T15:48:40.066Z,17.70
2022-11-28T15:51:23.201Z,17.70
2022-11-28T15:53:52.401Z,17.70
2022-11-28T15:56:21.764Z,17.70
2022-11-28T15:58:51.895Z,17.70
2022-11-28T16:01:22.678Z,17.70
2022-11-28T16:03:58.535Z,17.70
2022-11-28T16:06:31.628Z,17.70
2022-11-28T16:09:04.081Z,17.70
2022-11-28T16:11:34.242Z,17.70
2022-11-28T16:14:10.770Z,17.70
2022-11-28T16:16:41.059Z,17.80
2022-11-28T16:19:24.110Z,17.80
2022-11-28T16:21:55.884Z,17.80
2022-11-28T16:24:32.311Z,17.90
2022-11-28T16:27:07.611Z,17.90
2022-11-28T16:29:38.103Z,18.00
2022-11-28T16:32:21.756Z,18.00
2022-11-28T16:34:54.380Z,18.10
2022-11-28T16:37:26.971Z,18.20
2022-11-28T16:40:06.160Z,18.30
2022-11-28T16:42:36.225Z,18.40
2022-11-28T16:45:10.816Z,18.50
2022-11-28T16:47:40.025Z,18.60
2022-11-28T16:50:22.568Z,18.60
2022-11-28T16:52:53.885Z,18.70
2022-11-28T16:55:46.449Z,18.80
2022-11-28T16:58:21.164Z,18.90
2022-11-28T17:01:09.539Z,19.00
2022-11-28T17:03:50.710Z,19.30
2022-11-28T17:06:27.548Z,19.40
2022-11-28T17:08:56.815Z,19.40
2022-11-28T17:11:30.046Z,19.30
2022-11-28T17:14:02.496Z,19.30
2022-11-28T17:16:36.084Z,19.30
2022-11-28T17:19:05.379Z,19.30
2022-11-28T17:21:40.228Z,19.30
2022-11-28T17:24:17.568Z,19.40
2022-11-28T17:26:46.973Z,19.40
2022-11-28T17:29:17.017Z,19.40
2022-11-28T17:31:48.216Z,19.50
2022-11-28T17:34:19.357Z,19.50
2022-11-28T17:36:50.660Z,19.60
2022-11-28T17:39:20.987Z,19.60
2022-11-28T17:41:50.905Z,19.70
2022-11-28T17:44:22.208Z,19.70
2022-11-28T17:46:52.515Z,19.70
2022-11-28T17:49:22.641Z,19.70
2022-11-28T17:51:53.979Z,19.80
2022-11-28T17:54:25.343Z,19.80
2022-11-28T17:56:55.267Z,19.80
2022-11-28T17:59:27.146Z,19.90
2022-11-28T18:01:56.413Z,19.90
2022-11-28T18:04:28.541Z,19.90
2022-11-28T18:06:59.150Z,20.00
2022-11-28T18:09:29.381Z,20.00
2022-11-28T18:11:58.595Z,20.00
2022-11-28T18:14:28.139Z,20.00
2022-11-28T18:16:57.480Z,20.00
2022-11-28T18:19:27.256Z,20.10
2022-11-28T18:21:56.426Z,20.10
2022-11-28T18:24:27.387Z,20.10
2022-11-28T18:26:56.531Z,20.10
2022-11-28T18:29:25.801Z,20.10
2022-11-28T18:31:55.680Z,20.10
2022-11-28T18:34:24.909Z,20.20
2022-11-28T18:37:00.366Z,20.20
2022-11-28T18:39:35.074Z,20.20
2022-11-28T18:42:05.077Z,20.30
2022-11-28T18:44:34.677Z,20.30
2022-11-28T18:47:03.919Z,20.30
2022-11-28T18:49:33.027Z,20.30
2022-11-28T18:52:02.230Z,20.30
2022-11-28T18:54:33.268Z,20.40
2022-11-28T18:57:04.110Z,20.30
2022-11-28T18:59:33.453Z,20.40
2022-11-28T19:02:02.630Z,20.40
2022-11-28T19:04:31.938Z,20.40
2022-11-28T19:07:02.696Z,20.40
2022-11-28T19:09:32.988Z,20.40
2022-11-28T19:12:03.702Z,20.40
2022-11-28T19:14:33.208Z,20.50
2022-11-28T19:17:02.939Z,20.50
2022-11-28T19:19:33.147Z,20.50
2022-11-28T19:22:02.430Z,20.50
2022-11-28T19:24:32.038Z,20.60
2022-11-28T19:27:01.216Z,20.60
2022-11-28T19:29:31.726Z,20.60
2022-11-28T19:32:00.959Z,20.60
2022-11-28T19:34:30.418Z,20.60
2022-11-28T19:36:59.908Z,20.70
2022-11-28T19:39:29.479Z,20.70
2022-11-28T19:42:00.053Z,20.70
2022-11-28T19:44:31.706Z,20.70
2022-11-28T19:47:01.099Z,20.70
2022-11-28T19:49:31.408Z,20.70
2022-11-28T19:52:01.146Z,20.70
2022-11-28T19:54:30.579Z,20.60
2022-11-28T19:56:59.883Z,20.70
2022-11-28T19:59:30.542Z,20.70
2022-11-28T20:02:04.634Z,20.70
2022-11-28T20:04:33.851Z,20.70
2022-11-28T20:07:03.194Z,20.70
2022-11-28T20:09:32.735Z,20.80
2022-11-28T20:12:01.849Z,20.80
2022-11-28T20:14:34.030Z,20.80
2022-11-28T20:17:05.406Z,20.90
2022-11-28T20:19:37.411Z,20.80
2022-11-28T20:22:09.756Z,20.70
2022-11-28T20:24:40.390Z,20.70
2022-11-28T20:27:10.877Z,20.60
2022-11-28T20:29:40.594Z,20.60
2022-11-28T20:32:13.164Z,20.60
2022-11-28T20:34:42.659Z,20.60
2022-11-28T20:37:12.521Z,20.60
2022-11-28T20:39:42.185Z,20.50
2022-11-28T20:42:12.280Z,20.50
2022-11-28T20:44:41.561Z,20.50
2022-11-28T20:47:12.294Z,20.50
2022-11-28T20:49:41.593Z,20.50
2022-11-28T20:52:11.004Z,20.50
2022-11-28T20:54:40.080Z,20.40
2022-11-28T20:57:24.477Z,20.40
2022-11-28T20:59:56.850Z,20.40
2022-11-28T21:02:27.473Z,20.30
2022-11-28T21:04:57.615Z,20.30
2022-11-28T21:07:27.550Z,20.30
2022-11-28T21:10:00.014Z,20.20
2022-11-28T21:12:30.562Z,20.20
2022-11-28T21:14:59.783Z,20.10
2022-11-28T21:17:30.326Z,20.10
2022-11-28T21:19:59.410Z,20.10
2022-11-28T21:22:28.554Z,20.10
2022-11-28T21:24:57.839Z,20.10
2022-11-28T21:27:26.989Z,20.00
2022-11-28T21:29:56.130Z,20.00
2022-11-28T21:32:25.254Z,20.00
2022-11-28T21:35:00.997Z,19.90
2022-11-28T21:37:33.191Z,20.00
2022-11-28T21:40:02.564Z,19.90
2022-11-28T21:42:31.654Z,19.90
2022-11-28T21:45:00.863Z,19.90
2022-11-28T21:47:30.006Z,19.90
2022-11-28T21:50:00.983Z,19.90
2022-11-28T21:52:30.174Z,19.80
2022-11-28T21:54:59.323Z,19.80
2022-11-28T21:57:28.411Z,19.80
2022-11-28T21:59:57.567Z,19.80
2022-11-28T22:02:30.786Z,19.80
2022-11-28T22:05:02.306Z,19.70
2022-11-28T22:07:31.550Z,19.70
2022-11-28T22:10:00.708Z,19.70
2022-11-28T22:12:29.881Z,19.70
2022-11-28T22:14:59.512Z,19.70
2022-11-28T22:17:28.750Z,19.70
2022-11-28T22:19:58.122Z,19.70
2022-11-28T22:22:28.792Z,19.60
2022-11-28T22:24:58.337Z,19.60
2022-11-28T22:27:31.606Z,19.60
2022-11-28T22:30:01.004Z,19.60
2022-11-28T22:32:30.144Z,19.60
2022-11-28T22:34:59.588Z,19.60
2022-11-28T22:37:30.442Z,19.60
2022-11-28T22:39:59.879Z,19.50
2022-11-28T22:42:29.353Z,19.50
2022-11-28T22:44:58.653Z,19.50
2022-11-28T22:47:27.868Z,19.50
2022-11-28T22:49:57.011Z,19.50
2022-11-28T22:52:26.123Z,19.50
2022-11-28T22:54:57.000Z,19.40
2022-11-28T22:57:26.425Z,19.40
2022-11-28T22:59:55.581Z,19.40
2022-11-28T23:02:24.977Z,19.40
2022-11-28T23:04:55.242Z,19.40
2022-11-28T23:07:24.860Z,19.40
2022-11-28T23:09:54.312Z,19.40
2022-11-28T23:12:25.705Z,19.40
2022-11-28T23:14:54.863Z,19.40
2022-11-28T23:17:24.251Z,19.30
2022-11-28T23:19:53.354Z,19.30
2022-11-28T23:22:22.573Z,19.30
2022-11-28T23:24:51.896Z,19.30
2022-11-28T23:27:21.098Z,19.30
2022-11-28T23:29:51.756Z,19.30
2022-11-28T23:32:20.925Z,19.30
2022-11-28T23:34:50.724Z,19.30
2022-11-28T23:37:20.122Z,19.20
2022-11-28T23:39:49.191Z,19.20
2022-11-28T23:42:18.347Z,19.20
2022-11-28T23:44:47.823Z,19.20
2022-11-28T23:47:18.570Z,19.20
2022-11-28T23:49:47.760Z,19.20
2022-11-28T23:52:16.872Z,19.20
2022-11-28T23:54:46.271Z,19.20
2022-11-28T23:57:15.569Z,19.10
2022-11-28T23:59:44.711Z,19.10
